Cannonsburg, MI (49317)

4:44 AM EST on December 06, 2016 (GMT -0500)
Tillicum Farms - Rockford - Cannon Township | | Change Station

Elev 873 ft 43.09 °N, 85.47 °W | Updated 5 seconds ago

Clear
Clear
28.9 °F
Feels Like 29 °F
N
1.0
Wind Variable Wind from ESE
Gusts 6.0 mph

Today
High -- | Low -- °F
--% Chance of Precip.
Yesterday
High -- | Low -- °F
Precip. -- in
Pressure 29.96 in
Visibility 5.0 miles
Clouds Clear
Windchill 29 °F
Dew Point 27 °F
Humidity 93%
Rainfall 0.00 in
Snow Depth Not available.
7:59 AM 5:06 PM
Waxing Crescent, 40% visible
METAR KGRR 060853Z AUTO 10010KT 5SM BR CLR M02/M03 A2993 RMK AO2 SLP143 T10171033 58019
Pressure 29.96 in
Visibility 5.0 miles
Clouds Clear
Windchill 29 °F
Dew Point 27 °F
Humidity 93%
Rainfall 0.00 in
Snow Depth Not available.
7:59 AM 5:06 PM
Waxing Crescent, 40% visible
METAR KGRR 060853Z AUTO 10010KT 5SM BR CLR M02/M03 A2993 RMK AO2 SLP143 T10171033 58019

10-Day Weather Forecast

Almanac

Astronomy

Dec. 06, 2016 Rise Set
Actual Time
Civil Twilight
Nautical Twilight
Astronomical Twilight
Moon
Length of Visible Light
Length of Day
Tomorrow will be .
, % of the Moon is Illuminated

Today's Extremes

State Highs State Lows

Community

WunderPhotos

Upload Photos

1,955,935 photos uploaded!

WunderBlog® & News

Nearby

Air Quality

  Air Quality AQ Index Pollutant
Not available.

Snow Depth

Station Depth Elevation

Earthquake Activity

City Distance Mag. Time & Date
Minimum magnitude displayed is 2.5.

Coastal Water Temperatures

Place Temperature

Stations

Nearby Weather Stations

Station Location Temp. Windchill Dew Point Humidity Wind Precip. Elev Updated Type
                   

Watches & Warnings

There are currently no watches in effect.